sensor_id;sensor_type;location;lat;lon;timestamp;P1;durP1;ratioP1;P2;durP2;ratioP2
72275;SDS011;61204;49.980;8.358;2024-03-08T00:01:14;17.77;;;10.88;;
72275;SDS011;61204;49.980;8.358;2024-03-08T00:03:41;21.02;;;11.40;;
72275;SDS011;61204;49.980;8.358;2024-03-08T00:06:07;22.20;;;11.63;;
72275;SDS011;61204;49.980;8.358;2024-03-08T00:08:33;18.02;;;9.80;;
72275;SDS011;61204;49.980;8.358;2024-03-08T00:10:58;14.90;;;10.35;;
72275;SDS011;61204;49.980;8.358;2024-03-08T00:13:24;17.92;;;10.60;;
72275;SDS011;61204;49.980;8.358;2024-03-08T00:15:50;19.17;;;11.40;;
72275;SDS011;61204;49.980;8.358;2024-03-08T00:18:16;20.13;;;11.52;;
72275;SDS011;61204;49.980;8.358;2024-03-08T00:20:42;17.35;;;9.50;;
72275;SDS011;61204;49.980;8.358;2024-03-08T00:23:12;18.05;;;10.65;;
72275;SDS011;61204;49.980;8.358;2024-03-08T00:25:37;19.65;;;10.93;;
72275;SDS011;61204;49.980;8.358;2024-03-08T00:28:04;19.52;;;11.52;;
72275;SDS011;61204;49.980;8.358;2024-03-08T00:30:31;20.30;;;10.65;;
72275;SDS011;61204;49.980;8.358;2024-03-08T00:32:58;18.63;;;11.13;;
72275;SDS011;61204;49.980;8.358;2024-03-08T00:35:24;21.58;;;12.27;;
72275;SDS011;61204;49.980;8.358;2024-03-08T00:37:50;23.52;;;12.27;;
72275;SDS011;61204;49.980;8.358;2024-03-08T00:40:16;17.92;;;11.73;;
72275;SDS011;61204;49.980;8.358;2024-03-08T00:42:42;19.83;;;11.40;;
72275;SDS011;61204;49.980;8.358;2024-03-08T00:45:08;17.60;;;11.48;;
72275;SDS011;61204;49.980;8.358;2024-03-08T00:47:35;17.33;;;11.38;;
72275;SDS011;61204;49.980;8.358;2024-03-08T00:50:01;19.60;;;11.95;;
72275;SDS011;61204;49.980;8.358;2024-03-08T00:52:28;20.30;;;11.10;;
72275;SDS011;61204;49.980;8.358;2024-03-08T00:54:54;19.13;;;10.48;;
72275;SDS011;61204;49.980;8.358;2024-03-08T00:57:21;20.17;;;11.80;;
72275;SDS011;61204;49.980;8.358;2024-03-08T00:59:47;18.95;;;10.95;;
72275;SDS011;61204;49.980;8.358;2024-03-08T01:02:13;19.38;;;11.13;;
72275;SDS011;61204;49.980;8.358;2024-03-08T01:04:39;19.73;;;12.02;;
72275;SDS011;61204;49.980;8.358;2024-03-08T01:07:07;26.25;;;11.70;;
72275;SDS011;61204;49.980;8.358;2024-03-08T01:09:32;19.30;;;12.20;;
72275;SDS011;61204;49.980;8.358;2024-03-08T01:11:58;19.55;;;11.38;;
72275;SDS011;61204;49.980;8.358;2024-03-08T01:14:24;22.45;;;12.25;;
72275;SDS011;61204;49.980;8.358;2024-03-08T01:16:54;19.20;;;12.43;;
72275;SDS011;61204;49.980;8.358;2024-03-08T01:19:23;22.77;;;11.70;;
72275;SDS011;61204;49.980;8.358;2024-03-08T01:21:49;23.08;;;12.15;;
72275;SDS011;61204;49.980;8.358;2024-03-08T01:24:16;18.63;;;11.20;;
72275;SDS011;61204;49.980;8.358;2024-03-08T01:26:42;19.20;;;12.27;;
72275;SDS011;61204;49.980;8.358;2024-03-08T01:29:07;17.80;;;10.65;;
72275;SDS011;61204;49.980;8.358;2024-03-08T01:31:35;16.77;;;11.23;;
72275;SDS011;61204;49.980;8.358;2024-03-08T01:34:01;19.80;;;11.57;;
72275;SDS011;61204;49.980;8.358;2024-03-08T01:36:27;18.70;;;11.18;;
72275;SDS011;61204;49.980;8.358;2024-03-08T01:38:55;22.98;;;11.73;;
72275;SDS011;61204;49.980;8.358;2024-03-08T01:41:20;17.70;;;10.55;;
72275;SDS011;61204;49.980;8.358;2024-03-08T01:43:46;21.90;;;11.60;;
72275;SDS011;61204;49.980;8.358;2024-03-08T01:46:12;19.52;;;11.70;;
72275;SDS011;61204;49.980;8.358;2024-03-08T01:48:48;18.60;;;10.75;;
72275;SDS011;61204;49.980;8.358;2024-03-08T01:51:16;21.15;;;11.52;;
72275;SDS011;61204;49.980;8.358;2024-03-08T01:53:45;18.17;;;11.15;;
72275;SDS011;61204;49.980;8.358;2024-03-08T01:56:12;20.67;;;11.80;;
72275;SDS011;61204;49.980;8.358;2024-03-08T01:58:40;21.35;;;12.02;;
72275;SDS011;61204;49.980;8.358;2024-03-08T02:01:08;21.25;;;12.30;;
72275;SDS011;61204;49.980;8.358;2024-03-08T02:03:40;19.13;;;11.73;;
72275;SDS011;61204;49.980;8.358;2024-03-08T02:06:09;19.95;;;11.88;;
72275;SDS011;61204;49.980;8.358;2024-03-08T02:08:36;19.00;;;10.85;;
72275;SDS011;61204;49.980;8.358;2024-03-08T02:11:05;20.83;;;12.95;;
72275;SDS011;61204;49.980;8.358;2024-03-08T02:13:30;17.77;;;11.15;;
72275;SDS011;61204;49.980;8.358;2024-03-08T02:15:57;20.40;;;11.90;;
72275;SDS011;61204;49.980;8.358;2024-03-08T02:18:25;22.58;;;12.10;;
72275;SDS011;61204;49.980;8.358;2024-03-08T02:20:56;16.52;;;10.60;;
72275;SDS011;61204;49.980;8.358;2024-03-08T02:23:25;20.08;;;12.45;;
72275;SDS011;61204;49.980;8.358;2024-03-08T02:25:52;18.00;;;11.95;;
72275;SDS011;61204;49.980;8.358;2024-03-08T02:28:23;17.77;;;11.57;;
72275;SDS011;61204;49.980;8.358;2024-03-08T02:30:50;22.95;;;12.07;;
72275;SDS011;61204;49.980;8.358;2024-03-08T02:33:19;21.20;;;11.95;;
72275;SDS011;61204;49.980;8.358;2024-03-08T02:35:48;22.60;;;11.43;;
72275;SDS011;61204;49.980;8.358;2024-03-08T02:38:16;23.52;;;12.20;;
72275;SDS011;61204;49.980;8.358;2024-03-08T02:40:48;21.58;;;12.95;;
72275;SDS011;61204;49.980;8.358;2024-03-08T02:43:19;21.33;;;11.90;;
72275;SDS011;61204;49.980;8.358;2024-03-08T02:45:47;24.70;;;11.73;;
72275;SDS011;61204;49.980;8.358;2024-03-08T02:48:15;26.00;;;13.00;;
72275;SDS011;61204;49.980;8.358;2024-03-08T02:50:41;22.65;;;12.27;;
72275;SDS011;61204;49.980;8.358;2024-03-08T02:53:10;23.50;;;12.70;;
72275;SDS011;61204;49.980;8.358;2024-03-08T02:55:37;23.45;;;12.77;;
72275;SDS011;61204;49.980;8.358;2024-03-08T02:58:05;17.35;;;10.70;;
72275;SDS011;61204;49.980;8.358;2024-03-08T03:00:35;22.60;;;12.32;;
72275;SDS011;61204;49.980;8.358;2024-03-08T03:03:03;20.80;;;11.63;;
72275;SDS011;61204;49.980;8.358;2024-03-08T03:05:30;20.30;;;12.48;;
72275;SDS011;61204;49.980;8.358;2024-03-08T03:07:58;21.35;;;12.05;;
72275;SDS011;61204;49.980;8.358;2024-03-08T03:10:24;22.25;;;12.73;;
72275;SDS011;61204;49.980;8.358;2024-03-08T03:12:53;24.40;;;12.88;;
72275;SDS011;61204;49.980;8.358;2024-03-08T03:15:20;24.95;;;12.25;;
72275;SDS011;61204;49.980;8.358;2024-03-08T03:17:47;26.27;;;13.13;;
72275;SDS011;61204;49.980;8.358;2024-03-08T03:20:16;26.00;;;13.13;;
72275;SDS011;61204;49.980;8.358;2024-03-08T03:22:51;24.55;;;13.40;;
72275;SDS011;61204;49.980;8.358;2024-03-08T03:25:18;25.80;;;13.93;;
72275;SDS011;61204;49.980;8.358;2024-03-08T03:27:54;23.45;;;13.23;;
72275;SDS011;61204;49.980;8.358;2024-03-08T03:30:23;25.98;;;13.80;;
72275;SDS011;61204;49.980;8.358;2024-03-08T03:32:52;23.88;;;13.88;;
72275;SDS011;61204;49.980;8.358;2024-03-08T03:35:20;23.98;;;13.35;;
72275;SDS011;61204;49.980;8.358;2024-03-08T03:37:48;26.10;;;14.48;;
72275;SDS011;61204;49.980;8.358;2024-03-08T03:40:30;23.73;;;12.73;;
72275;SDS011;61204;49.980;8.358;2024-03-08T03:42:58;24.95;;;14.13;;
72275;SDS011;61204;49.980;8.358;2024-03-08T03:45:24;26.10;;;15.02;;
72275;SDS011;61204;49.980;8.358;2024-03-08T03:47:50;23.77;;;13.55;;
72275;SDS011;61204;49.980;8.358;2024-03-08T03:50:17;23.98;;;14.02;;
72275;SDS011;61204;49.980;8.358;2024-03-08T03:52:47;26.58;;;13.98;;
72275;SDS011;61204;49.980;8.358;2024-03-08T03:55:13;25.58;;;13.80;;
72275;SDS011;61204;49.980;8.358;2024-03-08T03:57:40;24.70;;;14.20;;
72275;SDS011;61204;49.980;8.358;2024-03-08T04:00:06;26.52;;;14.32;;
72275;SDS011;61204;49.980;8.358;2024-03-08T04:02:36;25.35;;;13.27;;
72275;SDS011;61204;49.980;8.358;2024-03-08T04:05:06;26.08;;;13.77;;
72275;SDS011;61204;49.980;8.358;2024-03-08T04:07:33;27.30;;;14.10;;
72275;SDS011;61204;49.980;8.358;2024-03-08T04:10:03;23.15;;;13.73;;
72275;SDS011;61204;49.980;8.358;2024-03-08T04:12:32;22.83;;;12.70;;
72275;SDS011;61204;49.980;8.358;2024-03-08T04:14:59;26.73;;;13.85;;
72275;SDS011;61204;49.980;8.358;2024-03-08T04:17:24;24.13;;;14.70;;
72275;SDS011;61204;49.980;8.358;2024-03-08T04:19:51;28.52;;;14.90;;
72275;SDS011;61204;49.980;8.358;2024-03-08T04:22:17;26.95;;;13.88;;
72275;SDS011;61204;49.980;8.358;2024-03-08T04:24:44;28.88;;;15.60;;
72275;SDS011;61204;49.980;8.358;2024-03-08T04:27:15;27.58;;;14.88;;
72275;SDS011;61204;49.980;8.358;2024-03-08T04:29:41;22.05;;;13.48;;
72275;SDS011;61204;49.980;8.358;2024-03-08T04:32:07;27.58;;;14.88;;
72275;SDS011;61204;49.980;8.358;2024-03-08T04:34:34;25.50;;;13.57;;
72275;SDS011;61204;49.980;8.358;2024-03-08T04:37:01;32.47;;;14.50;;
72275;SDS011;61204;49.980;8.358;2024-03-08T04:39:27;26.50;;;14.32;;
72275;SDS011;61204;49.980;8.358;2024-03-08T04:41:57;27.90;;;15.13;;
72275;SDS011;61204;49.980;8.358;2024-03-08T04:44:31;23.30;;;14.02;;
72275;SDS011;61204;49.980;8.358;2024-03-08T04:46:58;27.08;;;13.45;;
72275;SDS011;61204;49.980;8.358;2024-03-08T04:49:25;24.38;;;13.27;;
72275;SDS011;61204;49.980;8.358;2024-03-08T04:51:53;23.50;;;14.30;;
72275;SDS011;61204;49.980;8.358;2024-03-08T04:54:21;25.55;;;13.93;;
72275;SDS011;61204;49.980;8.358;2024-03-08T04:56:46;23.95;;;14.35;;
72275;SDS011;61204;49.980;8.358;2024-03-08T04:59:12;25.20;;;14.35;;
72275;SDS011;61204;49.980;8.358;2024-03-08T05:01:39;24.58;;;14.43;;
72275;SDS011;61204;49.980;8.358;2024-03-08T05:04:08;26.70;;;14.35;;
72275;SDS011;61204;49.980;8.358;2024-03-08T05:06:33;24.42;;;13.68;;
72275;SDS011;61204;49.980;8.358;2024-03-08T05:08:59;24.77;;;13.75;;
72275;SDS011;61204;49.980;8.358;2024-03-08T05:11:25;25.95;;;14.18;;
72275;SDS011;61204;49.980;8.358;2024-03-08T05:13:50;26.90;;;14.05;;
72275;SDS011;61204;49.980;8.358;2024-03-08T05:16:16;24.27;;;14.95;;
72275;SDS011;61204;49.980;8.358;2024-03-08T05:18:44;24.20;;;12.77;;
72275;SDS011;61204;49.980;8.358;2024-03-08T05:21:11;26.70;;;13.85;;
72275;SDS011;61204;49.980;8.358;2024-03-08T05:23:42;30.15;;;14.68;;
72275;SDS011;61204;49.980;8.358;2024-03-08T05:26:07;25.83;;;12.80;;
72275;SDS011;61204;49.980;8.358;2024-03-08T05:28:35;25.58;;;14.88;;
72275;SDS011;61204;49.980;8.358;2024-03-08T05:31:03;23.88;;;14.52;;
72275;SDS011;61204;49.980;8.358;2024-03-08T05:33:31;27.40;;;14.88;;
72275;SDS011;61204;49.980;8.358;2024-03-08T05:35:59;27.63;;;15.52;;
72275;SDS011;61204;49.980;8.358;2024-03-08T05:38:28;30.63;;;15.38;;
72275;SDS011;61204;49.980;8.358;2024-03-08T05:40:54;30.00;;;15.57;;
72275;SDS011;61204;49.980;8.358;2024-03-08T05:43:20;26.95;;;14.82;;
72275;SDS011;61204;49.980;8.358;2024-03-08T05:45:46;24.98;;;14.35;;
72275;SDS011;61204;49.980;8.358;2024-03-08T05:48:13;33.20;;;16.48;;
72275;SDS011;61204;49.980;8.358;2024-03-08T05:50:38;32.78;;;15.05;;
72275;SDS011;61204;49.980;8.358;2024-03-08T05:53:04;28.85;;;16.08;;
72275;SDS011;61204;49.980;8.358;2024-03-08T05:55:32;25.33;;;14.25;;
72275;SDS011;61204;49.980;8.358;2024-03-08T05:58:00;22.40;;;12.45;;
72275;SDS011;61204;49.980;8.358;2024-03-08T06:00:26;28.02;;;15.15;;
72275;SDS011;61204;49.980;8.358;2024-03-08T06:02:52;26.20;;;14.90;;
72275;SDS011;61204;49.980;8.358;2024-03-08T06:05:18;23.05;;;13.77;;
72275;SDS011;61204;49.980;8.358;2024-03-08T06:07:44;29.90;;;15.52;;
72275;SDS011;61204;49.980;8.358;2024-03-08T06:10:10;24.73;;;15.60;;
72275;SDS011;61204;49.980;8.358;2024-03-08T06:12:39;29.38;;;15.52;;
72275;SDS011;61204;49.980;8.358;2024-03-08T06:15:06;28.05;;;16.20;;
72275;SDS011;61204;49.980;8.358;2024-03-08T06:17:35;28.52;;;14.32;;
72275;SDS011;61204;49.980;8.358;2024-03-08T06:20:02;27.02;;;15.68;;
72275;SDS011;61204;49.980;8.358;2024-03-08T06:22:37;27.75;;;14.93;;
72275;SDS011;61204;49.980;8.358;2024-03-08T06:25:06;25.50;;;15.20;;
72275;SDS011;61204;49.980;8.358;2024-03-08T06:27:41;29.77;;;16.15;;
72275;SDS011;61204;49.980;8.358;2024-03-08T06:30:11;27.05;;;16.20;;
72275;SDS011;61204;49.980;8.358;2024-03-08T06:32:38;27.02;;;15.15;;
72275;SDS011;61204;49.980;8.358;2024-03-08T06:35:04;26.80;;;15.60;;
72275;SDS011;61204;49.980;8.358;2024-03-08T06:37:36;33.88;;;16.55;;
72275;SDS011;61204;49.980;8.358;2024-03-08T06:40:02;26.52;;;14.98;;
72275;SDS011;61204;49.980;8.358;2024-03-08T06:42:29;26.73;;;15.85;;
72275;SDS011;61204;49.980;8.358;2024-03-08T06:45:01;23.77;;;14.43;;
72275;SDS011;61204;49.980;8.358;2024-03-08T06:47:31;24.70;;;14.20;;
72275;SDS011;61204;49.980;8.358;2024-03-08T06:49:59;35.50;;;16.60;;
72275;SDS011;61204;49.980;8.358;2024-03-08T06:52:27;31.58;;;16.92;;
72275;SDS011;61204;49.980;8.358;2024-03-08T06:54:53;27.58;;;15.38;;
72275;SDS011;61204;49.980;8.358;2024-03-08T06:57:22;31.48;;;16.90;;
72275;SDS011;61204;49.980;8.358;2024-03-08T06:59:48;29.30;;;16.27;;
72275;SDS011;61204;49.980;8.358;2024-03-08T07:02:14;29.65;;;14.75;;
72275;SDS011;61204;49.980;8.358;2024-03-08T07:04:40;28.00;;;15.95;;
72275;SDS011;61204;49.980;8.358;2024-03-08T07:07:05;30.58;;;15.80;;
72275;SDS011;61204;49.980;8.358;2024-03-08T07:09:35;32.40;;;16.70;;
72275;SDS011;61204;49.980;8.358;2024-03-08T07:12:01;27.77;;;16.45;;
72275;SDS011;61204;49.980;8.358;2024-03-08T07:14:28;26.67;;;15.13;;
72275;SDS011;61204;49.980;8.358;2024-03-08T07:16:56;32.67;;;16.85;;
72275;SDS011;61204;49.980;8.358;2024-03-08T07:19:22;30.08;;;16.33;;
72275;SDS011;61204;49.980;8.358;2024-03-08T07:21:49;28.98;;;16.33;;
72275;SDS011;61204;49.980;8.358;2024-03-08T07:24:16;29.33;;;15.93;;
72275;SDS011;61204;49.980;8.358;2024-03-08T07:26:45;30.02;;;15.65;;
72275;SDS011;61204;49.980;8.358;2024-03-08T07:29:14;29.30;;;15.27;;
72275;SDS011;61204;49.980;8.358;2024-03-08T07:31:43;29.05;;;16.98;;
72275;SDS011;61204;49.980;8.358;2024-03-08T07:34:39;28.58;;;17.45;;
72275;SDS011;61204;49.980;8.358;2024-03-08T07:37:06;28.98;;;16.77;;
72275;SDS011;61204;49.980;8.358;2024-03-08T07:39:35;30.38;;;15.98;;
72275;SDS011;61204;49.980;8.358;2024-03-08T07:42:04;28.35;;;15.00;;
72275;SDS011;61204;49.980;8.358;2024-03-08T07:44:30;24.83;;;13.98;;
72275;SDS011;61204;49.980;8.358;2024-03-08T07:46:58;32.45;;;16.25;;
72275;SDS011;61204;49.980;8.358;2024-03-08T07:49:24;31.00;;;15.05;;
72275;SDS011;61204;49.980;8.358;2024-03-08T07:51:50;26.10;;;14.18;;
72275;SDS011;61204;49.980;8.358;2024-03-08T07:54:16;30.05;;;15.38;;
72275;SDS011;61204;49.980;8.358;2024-03-08T07:56:42;29.42;;;15.25;;
72275;SDS011;61204;49.980;8.358;2024-03-08T07:59:10;26.92;;;15.73;;
72275;SDS011;61204;49.980;8.358;2024-03-08T08:01:37;27.73;;;16.35;;
72275;SDS011;61204;49.980;8.358;2024-03-08T08:04:05;24.42;;;14.30;;
72275;SDS011;61204;49.980;8.358;2024-03-08T08:06:31;26.77;;;14.60;;
72275;SDS011;61204;49.980;8.358;2024-03-08T08:08:58;25.65;;;14.35;;
72275;SDS011;61204;49.980;8.358;2024-03-08T08:11:26;24.50;;;15.13;;
72275;SDS011;61204;49.980;8.358;2024-03-08T08:13:53;27.88;;;14.70;;
72275;SDS011;61204;49.980;8.358;2024-03-08T08:16:20;22.08;;;13.00;;
72275;SDS011;61204;49.980;8.358;2024-03-08T08:18:48;23.38;;;14.45;;
72275;SDS011;61204;49.980;8.358;2024-03-08T08:21:15;24.27;;;14.48;;
72275;SDS011;61204;49.980;8.358;2024-03-08T08:23:40;19.00;;;11.93;;
72275;SDS011;61204;49.980;8.358;2024-03-08T08:26:06;21.65;;;12.93;;
72275;SDS011;61204;49.980;8.358;2024-03-08T08:28:32;24.40;;;13.88;;
72275;SDS011;61204;49.980;8.358;2024-03-08T08:30:58;24.70;;;13.10;;
72275;SDS011;61204;49.980;8.358;2024-03-08T08:33:24;27.58;;;15.40;;
72275;SDS011;61204;49.980;8.358;2024-03-08T08:35:52;20.08;;;10.93;;
72275;SDS011;61204;49.980;8.358;2024-03-08T08:38:19;22.17;;;14.05;;
72275;SDS011;61204;49.980;8.358;2024-03-08T08:40:45;25.00;;;13.52;;
72275;SDS011;61204;49.980;8.358;2024-03-08T08:43:14;23.73;;;12.27;;
72275;SDS011;61204;49.980;8.358;2024-03-08T08:45:42;24.30;;;13.93;;
72275;SDS011;61204;49.980;8.358;2024-03-08T08:48:12;21.58;;;13.70;;
72275;SDS011;61204;49.980;8.358;2024-03-08T08:50:37;26.25;;;13.75;;
72275;SDS011;61204;49.980;8.358;2024-03-08T08:53:04;25.17;;;13.68;;
72275;SDS011;61204;49.980;8.358;2024-03-08T08:55:31;24.67;;;12.95;;
72275;SDS011;61204;49.980;8.358;2024-03-08T08:58:03;17.10;;;11.23;;
72275;SDS011;61204;49.980;8.358;2024-03-08T09:00:33;21.17;;;11.63;;
72275;SDS011;61204;49.980;8.358;2024-03-08T09:02:59;22.92;;;11.38;;
72275;SDS011;61204;49.980;8.358;2024-03-08T09:05:27;21.77;;;12.50;;
72275;SDS011;61204;49.980;8.358;2024-03-08T09:07:55;20.58;;;11.15;;
72275;SDS011;61204;49.980;8.358;2024-03-08T09:10:23;22.67;;;12.18;;
72275;SDS011;61204;49.980;8.358;2024-03-08T09:12:48;26.85;;;12.40;;
72275;SDS011;61204;49.980;8.358;2024-03-08T09:15:17;18.13;;;10.55;;
72275;SDS011;61204;49.980;8.358;2024-03-08T09:17:46;19.40;;;12.40;;
72275;SDS011;61204;49.980;8.358;2024-03-08T09:20:13;21.45;;;12.43;;
72275;SDS011;61204;49.980;8.358;2024-03-08T09:22:40;24.25;;;12.90;;
72275;SDS011;61204;49.980;8.358;2024-03-08T09:25:09;18.23;;;10.85;;
72275;SDS011;61204;49.980;8.358;2024-03-08T09:27:35;20.63;;;12.63;;
72275;SDS011;61204;49.980;8.358;2024-03-08T09:30:00;22.50;;;12.43;;
72275;SDS011;61204;49.980;8.358;2024-03-08T09:32:26;21.55;;;13.40;;
72275;SDS011;61204;49.980;8.358;2024-03-08T09:34:52;23.20;;;12.63;;
72275;SDS011;61204;49.980;8.358;2024-03-08T09:37:18;17.67;;;11.32;;
72275;SDS011;61204;49.980;8.358;2024-03-08T09:39:46;19.60;;;10.70;;
72275;SDS011;61204;49.980;8.358;2024-03-08T09:42:11;21.60;;;11.15;;
72275;SDS011;61204;49.980;8.358;2024-03-08T09:44:43;20.10;;;11.40;;
72275;SDS011;61204;49.980;8.358;2024-03-08T09:47:13;23.30;;;11.43;;
72275;SDS011;61204;49.980;8.358;2024-03-08T09:49:40;18.08;;;10.75;;
72275;SDS011;61204;49.980;8.358;2024-03-08T09:52:08;18.08;;;11.25;;
72275;SDS011;61204;49.980;8.358;2024-03-08T09:54:35;19.20;;;10.60;;
72275;SDS011;61204;49.980;8.358;2024-03-08T09:57:03;14.85;;;9.82;;
72275;SDS011;61204;49.980;8.358;2024-03-08T09:59:33;17.42;;;10.57;;
72275;SDS011;61204;49.980;8.358;2024-03-08T10:02:01;18.42;;;11.18;;
72275;SDS011;61204;49.980;8.358;2024-03-08T10:04:29;15.75;;;8.73;;
72275;SDS011;61204;49.980;8.358;2024-03-08T10:07:01;17.08;;;9.10;;
72275;SDS011;61204;49.980;8.358;2024-03-08T10:09:27;16.88;;;10.55;;
72275;SDS011;61204;49.980;8.358;2024-03-08T10:11:56;15.85;;;9.68;;
72275;SDS011;61204;49.980;8.358;2024-03-08T10:14:25;15.40;;;8.70;;
72275;SDS011;61204;49.980;8.358;2024-03-08T10:16:54;16.02;;;8.35;;
72275;SDS011;61204;49.980;8.358;2024-03-08T10:19:24;14.25;;;8.68;;
72275;SDS011;61204;49.980;8.358;2024-03-08T10:21:51;16.30;;;9.32;;
72275;SDS011;61204;49.980;8.358;2024-03-08T10:24:24;15.77;;;9.50;;
72275;SDS011;61204;49.980;8.358;2024-03-08T10:26:53;14.07;;;8.63;;
72275;SDS011;61204;49.980;8.358;2024-03-08T10:29:30;13.82;;;8.55;;
72275;SDS011;61204;49.980;8.358;2024-03-08T10:31:59;13.48;;;8.35;;
72275;SDS011;61204;49.980;8.358;2024-03-08T10:34:27;15.77;;;8.55;;
72275;SDS011;61204;49.980;8.358;2024-03-08T10:36:55;15.75;;;9.30;;
72275;SDS011;61204;49.980;8.358;2024-03-08T10:39:36;13.57;;;8.93;;
72275;SDS011;61204;49.980;8.358;2024-03-08T10:42:05;13.05;;;8.40;;
72275;SDS011;61204;49.980;8.358;2024-03-08T10:44:54;16.20;;;9.15;;
72275;SDS011;61204;49.980;8.358;2024-03-08T10:47:40;15.10;;;9.50;;
72275;SDS011;61204;49.980;8.358;2024-03-08T10:50:17;16.45;;;8.68;;
72275;SDS011;61204;49.980;8.358;2024-03-08T10:52:50;17.20;;;9.85;;
72275;SDS011;61204;49.980;8.358;2024-03-08T10:55:17;13.90;;;8.13;;
72275;SDS011;61204;49.980;8.358;2024-03-08T10:57:47;12.80;;;7.47;;
72275;SDS011;61204;49.980;8.358;2024-03-08T11:00:13;15.77;;;8.55;;
72275;SDS011;61204;49.980;8.358;2024-03-08T11:02:44;14.38;;;8.70;;
72275;SDS011;61204;49.980;8.358;2024-03-08T11:05:10;15.27;;;9.25;;
72275;SDS011;61204;49.980;8.358;2024-03-08T11:08:00;14.70;;;9.10;;
72275;SDS011;61204;49.980;8.358;2024-03-08T11:10:29;15.23;;;8.70;;
72275;SDS011;61204;49.980;8.358;2024-03-08T11:12:57;15.50;;;8.70;;
72275;SDS011;61204;49.980;8.358;2024-03-08T11:15:23;13.35;;;8.07;;
72275;SDS011;61204;49.980;8.358;2024-03-08T11:17:50;17.48;;;9.95;;
72275;SDS011;61204;49.980;8.358;2024-03-08T11:20:17;18.27;;;9.80;;
72275;SDS011;61204;49.980;8.358;2024-03-08T11:22:53;13.65;;;8.55;;
72275;SDS011;61204;49.980;8.358;2024-03-08T11:25:41;17.23;;;10.10;;
72275;SDS011;61204;49.980;8.358;2024-03-08T11:28:10;13.23;;;7.90;;
72275;SDS011;61204;49.980;8.358;2024-03-08T11:33:30;15.48;;;9.10;;
72275;SDS011;61204;49.980;8.358;2024-03-08T11:38:47;14.43;;;9.43;;
72275;SDS011;61204;49.980;8.358;2024-03-08T11:41:17;14.18;;;9.18;;
72275;SDS011;61204;49.980;8.358;2024-03-08T11:43:48;22.10;;;9.57;;
72275;SDS011;61204;49.980;8.358;2024-03-08T11:46:30;15.30;;;10.15;;
72275;SDS011;61204;49.980;8.358;2024-03-08T11:48:56;14.60;;;8.43;;
72275;SDS011;61204;49.980;8.358;2024-03-08T11:51:22;16.40;;;10.13;;
72275;SDS011;61204;49.980;8.358;2024-03-08T11:53:49;17.05;;;9.65;;
72275;SDS011;61204;49.980;8.358;2024-03-08T11:56:17;15.63;;;10.18;;
72275;SDS011;61204;49.980;8.358;2024-03-08T11:58:52;18.23;;;9.57;;
72275;SDS011;61204;49.980;8.358;2024-03-08T12:01:24;19.42;;;9.60;;
72275;SDS011;61204;49.980;8.358;2024-03-08T12:03:56;17.38;;;9.93;;
72275;SDS011;61204;49.980;8.358;2024-03-08T12:06:26;15.43;;;9.90;;
72275;SDS011;61204;49.980;8.358;2024-03-08T12:09:09;16.23;;;10.27;;
72275;SDS011;61204;49.980;8.358;2024-03-08T12:11:39;16.65;;;10.50;;
72275;SDS011;61204;49.980;8.358;2024-03-08T12:14:06;15.90;;;10.20;;
72275;SDS011;61204;49.980;8.358;2024-03-08T12:16:36;17.23;;;9.50;;
72275;SDS011;61204;49.980;8.358;2024-03-08T12:19:02;20.33;;;10.90;;
72275;SDS011;61204;49.980;8.358;2024-03-08T12:21:30;18.55;;;10.48;;
72275;SDS011;61204;49.980;8.358;2024-03-08T12:24:16;18.67;;;11.80;;
72275;SDS011;61204;49.980;8.358;2024-03-08T12:26:46;16.77;;;10.02;;
72275;SDS011;61204;49.980;8.358;2024-03-08T12:29:14;17.55;;;10.57;;
72275;SDS011;61204;49.980;8.358;2024-03-08T12:31:53;14.77;;;10.05;;
72275;SDS011;61204;49.980;8.358;2024-03-08T12:34:23;14.88;;;10.23;;
72275;SDS011;61204;49.980;8.358;2024-03-08T12:36:50;18.58;;;11.68;;
72275;SDS011;61204;49.980;8.358;2024-03-08T12:39:19;17.13;;;10.20;;
72275;SDS011;61204;49.980;8.358;2024-03-08T12:41:52;17.45;;;10.70;;
72275;SDS011;61204;49.980;8.358;2024-03-08T12:44:19;19.17;;;10.57;;
72275;SDS011;61204;49.980;8.358;2024-03-08T12:46:49;16.85;;;9.05;;
72275;SDS011;61204;49.980;8.358;2024-03-08T12:49:16;15.90;;;10.32;;
72275;SDS011;61204;49.980;8.358;2024-03-08T12:51:47;16.88;;;10.13;;
72275;SDS011;61204;49.980;8.358;2024-03-08T12:54:13;25.27;;;9.80;;
72275;SDS011;61204;49.980;8.358;2024-03-08T12:56:39;17.25;;;10.23;;
72275;SDS011;61204;49.980;8.358;2024-03-08T12:59:08;15.52;;;9.95;;
72275;SDS011;61204;49.980;8.358;2024-03-08T13:01:35;16.45;;;10.13;;
72275;SDS011;61204;49.980;8.358;2024-03-08T13:04:04;25.02;;;11.07;;
72275;SDS011;61204;49.980;8.358;2024-03-08T13:06:32;20.42;;;10.85;;
72275;SDS011;61204;49.980;8.358;2024-03-08T13:08:58;16.27;;;10.73;;
72275;SDS011;61204;49.980;8.358;2024-03-08T13:11:29;14.35;;;9.38;;
72275;SDS011;61204;49.980;8.358;2024-03-08T13:13:55;16.00;;;9.13;;
72275;SDS011;61204;49.980;8.358;2024-03-08T13:16:21;18.33;;;10.02;;
72275;SDS011;61204;49.980;8.358;2024-03-08T13:18:48;16.15;;;10.45;;
72275;SDS011;61204;49.980;8.358;2024-03-08T13:21:14;17.90;;;10.38;;
72275;SDS011;61204;49.980;8.358;2024-03-08T13:23:43;20.20;;;10.15;;
72275;SDS011;61204;49.980;8.358;2024-03-08T13:26:14;16.08;;;9.70;;
72275;SDS011;61204;49.980;8.358;2024-03-08T13:28:47;16.20;;;10.70;;
72275;SDS011;61204;49.980;8.358;2024-03-08T13:31:21;16.00;;;9.65;;
72275;SDS011;61204;49.980;8.358;2024-03-08T13:33:50;17.15;;;9.75;;
72275;SDS011;61204;49.980;8.358;2024-03-08T13:36:22;16.52;;;9.50;;
72275;SDS011;61204;49.980;8.358;2024-03-08T13:38:53;17.45;;;10.60;;
72275;SDS011;61204;49.980;8.358;2024-03-08T13:41:19;16.13;;;10.18;;
72275;SDS011;61204;49.980;8.358;2024-03-08T13:43:49;17.63;;;10.10;;
72275;SDS011;61204;49.980;8.358;2024-03-08T13:46:15;18.60;;;9.93;;
72275;SDS011;61204;49.980;8.358;2024-03-08T13:48:45;15.38;;;9.52;;
72275;SDS011;61204;49.980;8.358;2024-03-08T13:51:11;16.25;;;9.73;;
72275;SDS011;61204;49.980;8.358;2024-03-08T13:53:40;14.88;;;8.32;;
72275;SDS011;61204;49.980;8.358;2024-03-08T13:56:06;17.60;;;10.05;;
72275;SDS011;61204;49.980;8.358;2024-03-08T13:58:35;16.40;;;9.27;;
72275;SDS011;61204;49.980;8.358;2024-03-08T14:01:01;16.95;;;9.98;;
72275;SDS011;61204;49.980;8.358;2024-03-08T14:03:28;15.25;;;8.20;;
72275;SDS011;61204;49.980;8.358;2024-03-08T14:05:54;14.60;;;9.48;;
72275;SDS011;61204;49.980;8.358;2024-03-08T14:08:20;14.95;;;8.80;;
72275;SDS011;61204;49.980;8.358;2024-03-08T14:10:46;15.65;;;9.63;;
72275;SDS011;61204;49.980;8.358;2024-03-08T14:13:14;14.55;;;8.80;;
72275;SDS011;61204;49.980;8.358;2024-03-08T14:15:41;18.70;;;10.48;;
72275;SDS011;61204;49.980;8.358;2024-03-08T14:18:07;16.60;;;9.35;;
72275;SDS011;61204;49.980;8.358;2024-03-08T14:20:33;15.45;;;9.93;;
72275;SDS011;61204;49.980;8.358;2024-03-08T14:22:59;14.30;;;8.32;;
72275;SDS011;61204;49.980;8.358;2024-03-08T14:25:25;16.90;;;9.80;;
72275;SDS011;61204;49.980;8.358;2024-03-08T14:27:54;17.33;;;10.18;;
72275;SDS011;61204;49.980;8.358;2024-03-08T14:30:23;14.52;;;9.65;;
72275;SDS011;61204;49.980;8.358;2024-03-08T14:33:03;17.95;;;9.52;;
72275;SDS011;61204;49.980;8.358;2024-03-08T14:35:30;17.17;;;10.10;;